Time;durP1;ratioP1;P1;durP2;ratioP2;P2;SDS_P1;SDS_P2;PMS_P1;PMS_P2;Temp;Humidity;BMP_temperature;BMP_pressure;BME280_temperature;BME280_humidity;BME280_pressure;Samples;Min_cycle;Max_cycle;Signal;HPM_P1;HPM_P2
2022/09/11 00:01:17;;;;;;;;;;;12.30;99.90;;;;;;5049855;28;19913;-80
2022/09/11 00:03:43;;;;;;;;;;;12.20;99.90;;;;;;5040013;28;19999;-79
2022/09/11 00:06:10;;;;;;;;;;;12.20;99.90;;;;;;5049560;28;20071;-79
2022/09/11 00:08:36;;;;;;;;;;;12.20;99.90;;;;;;5048414;28;19917;-79
2022/09/11 00:11:12;;;;;;;;;;;12.30;99.90;;;;;;5041665;28;19921;-79
2022/09/11 00:13:38;;;;;;;;;;;12.20;99.90;;;;;;5050614;28;19909;-79
2022/09/11 00:16:06;;;;;;;;;;;12.20;99.90;;;;;;5047160;28;19927;-80
2022/09/11 00:18:34;;;;;;;;;;;12.20;99.90;;;;;;5044287;28;20540;-79
2022/09/11 00:21:01;;;;;;;;;;;12.20;99.90;;;;;;5064944;28;19913;-79
2022/09/11 00:23:26;;;;;;;;;;;12.20;99.90;;;;;;5071970;28;19924;-79
2022/09/11 00:25:52;;;;;;;;;;;12.20;99.90;;;;;;5034880;28;19917;-80
2022/09/11 00:28:19;;;;;;;;;;;12.20;99.90;;;;;;5037610;28;19909;-80
2022/09/11 00:30:45;;;;;;;;;;;12.20;99.90;;;;;;5046698;28;20004;-80
2022/09/11 00:33:11;;;;;;;;;;;12.20;99.90;;;;;;5057685;28;19917;-80
2022/09/11 00:35:37;;;;;;;;;;;12.30;99.90;;;;;;5040742;28;20376;-79
2022/09/11 00:38:02;;;;;;;;;;;12.30;99.90;;;;;;5050475;28;19999;-80
2022/09/11 00:40:28;;;;;;;;;;;12.30;99.90;;;;;;5047969;28;19927;-80
2022/09/11 00:42:54;;;;;;;;;;;12.30;99.90;;;;;;5045873;28;20364;-80
2022/09/11 00:45:24;;;;;;;;;;;12.20;99.90;;;;;;5047035;28;19905;-80
2022/09/11 00:47:50;;;;;;;;;;;12.20;99.90;;;;;;5038292;28;20376;-79
2022/09/11 00:50:18;;;;;;;;;;;12.30;99.90;;;;;;5040081;28;19913;-79
2022/09/11 00:52:50;;;;;;;;;;;12.30;99.90;;;;;;5047086;28;19962;-79
2022/09/11 00:55:16;;;;;;;;;;;12.20;99.90;;;;;;5040886;28;19917;-79
2022/09/11 00:57:48;;;;;;;;;;;12.20;99.90;;;;;;5045598;28;19909;-79
2022/09/11 01:00:13;;;;;;;;;;;12.20;99.90;;;;;;5034396;28;19924;-79
2022/09/11 01:02:41;;;;;;;;;;;12.20;99.90;;;;;;5039927;28;19917;-80
2022/09/11 01:05:07;;;;;;;;;;;12.20;99.90;;;;;;5044348;28;19913;-79
2022/09/11 01:07:34;;;;;;;;;;;12.20;99.90;;;;;;5046745;28;19908;-79
2022/09/11 01:10:00;;;;;;;;;;;12.20;99.90;;;;;;5039211;28;19944;-81
2022/09/11 01:12:35;;;;;;;;;;;12.20;99.90;;;;;;5044357;28;19916;-80
2022/09/11 01:15:19;;;;;;;;;;;12.10;99.90;;;;;;5047277;28;19909;-79
2022/09/11 01:18:02;;;;;;;;;;;12.10;99.90;;;;;;5038593;28;19948;-79
2022/09/11 01:20:46;;;;;;;;;;;12.20;99.90;;;;;;5049692;28;20027;-80
2022/09/11 01:23:30;;;;;;;;;;;12.30;99.90;;;;;;5044400;28;20006;-79
2022/09/11 01:25:58;;;;;;;;;;;12.20;99.90;;;;;;5039826;28;19913;-79
2022/09/11 01:28:51;;;;;;;;;;;12.20;99.90;;;;;;5049213;28;19913;-79
2022/09/11 01:31:20;;;;;;;;;;;12.20;99.90;;;;;;5028948;28;19921;-79
2022/09/11 01:33:58;;;;;;;;;;;12.20;99.90;;;;;;5041329;28;20287;-79
2022/09/11 01:36:30;;;;;;;;;;;12.20;99.90;;;;;;5047023;28;19919;-79
2022/09/11 01:39:01;;;;;;;;;;;12.20;99.90;;;;;;5044589;28;19951;-79
2022/09/11 01:41:28;;;;;;;;;;;12.20;99.90;;;;;;5044061;28;19925;-80
2022/09/11 01:44:06;;;;;;;;;;;12.20;99.90;;;;;;5027380;28;19920;-79
2022/09/11 01:46:34;;;;;;;;;;;12.20;99.90;;;;;;5042836;28;19909;-79
2022/09/11 01:49:12;;;;;;;;;;;12.30;99.90;;;;;;5049378;28;19920;-80
2022/09/11 01:51:39;;;;;;;;;;;12.20;99.90;;;;;;5036582;28;19967;-80
2022/09/11 01:54:08;;;;;;;;;;;12.30;99.90;;;;;;5047935;28;19917;-79
2022/09/11 01:56:36;;;;;;;;;;;12.30;99.90;;;;;;5041017;28;19909;-79
2022/09/11 01:59:04;;;;;;;;;;;12.30;99.90;;;;;;5049109;28;19915;-79
2022/09/11 02:01:32;;;;;;;;;;;12.30;99.90;;;;;;5048035;28;19987;-80
2022/09/11 02:04:09;;;;;;;;;;;12.30;99.90;;;;;;5045822;28;19917;-79
2022/09/11 02:06:55;;;;;;;;;;;12.30;99.90;;;;;;5041057;28;19987;-79
2022/09/11 02:09:22;;;;;;;;;;;12.30;99.90;;;;;;5034674;28;19913;-79
2022/09/11 02:11:50;;;;;;;;;;;12.30;99.90;;;;;;5034751;28;19963;-78
2022/09/11 02:14:16;;;;;;;;;;;12.30;99.90;;;;;;5049308;28;19974;-78
2022/09/11 02:16:45;;;;;;;;;;;12.30;99.90;;;;;;5037707;28;19909;-79
2022/09/11 02:19:12;;;;;;;;;;;12.30;99.90;;;;;;5040799;28;19935;-79
2022/09/11 02:21:37;;;;;;;;;;;12.30;99.90;;;;;;5044348;28;19917;-79
2022/09/11 02:24:03;;;;;;;;;;;12.30;99.90;;;;;;5048978;28;20312;-79
2022/09/11 02:26:30;;;;;;;;;;;12.30;99.90;;;;;;5046301;28;20288;-79
2022/09/11 02:28:55;;;;;;;;;;;12.30;99.90;;;;;;5042219;28;19927;-79
2022/09/11 02:31:21;;;;;;;;;;;12.20;99.90;;;;;;5046337;28;19917;-80
2022/09/11 02:33:48;;;;;;;;;;;12.30;99.90;;;;;;5047496;28;19935;-80
2022/09/11 02:36:34;;;;;;;;;;;12.30;99.90;;;;;;5045105;28;19916;-80
2022/09/11 02:39:08;;;;;;;;;;;12.30;99.90;;;;;;5046983;28;20015;-79
2022/09/11 02:41:45;;;;;;;;;;;12.30;99.90;;;;;;5034089;28;19920;-80
2022/09/11 02:44:19;;;;;;;;;;;12.30;99.90;;;;;;5048815;28;19951;-79
2022/09/11 02:46:59;;;;;;;;;;;12.30;99.90;;;;;;5045055;28;19943;-78
2022/09/11 02:49:44;;;;;;;;;;;12.30;99.90;;;;;;5047275;28;20035;-80
2022/09/11 02:52:28;;;;;;;;;;;12.30;99.90;;;;;;5047562;28;19931;-80
2022/09/11 02:55:06;;;;;;;;;;;12.20;99.90;;;;;;5046667;28;19913;-80
2022/09/11 02:57:37;;;;;;;;;;;12.20;99.90;;;;;;5045832;28;20420;-80
2022/09/11 03:00:05;;;;;;;;;;;12.20;99.90;;;;;;5051975;28;19916;-79
2022/09/11 03:02:33;;;;;;;;;;;12.20;99.90;;;;;;5051624;28;19913;-79
2022/09/11 03:04:59;;;;;;;;;;;12.20;99.90;;;;;;5044106;28;19928;-79
2022/09/11 03:07:24;;;;;;;;;;;12.20;99.90;;;;;;5038152;28;19917;-79
2022/09/11 03:09:50;;;;;;;;;;;12.20;99.90;;;;;;5045443;28;19960;-79
2022/09/11 03:12:16;;;;;;;;;;;12.20;99.90;;;;;;5047960;28;19917;-80
2022/09/11 03:14:42;;;;;;;;;;;12.30;99.90;;;;;;5044048;28;19917;-79
2022/09/11 03:17:07;;;;;;;;;;;12.20;99.90;;;;;;5043814;28;19916;-79
2022/09/11 03:19:33;;;;;;;;;;;12.20;99.90;;;;;;5062403;28;19913;-80
2022/09/11 03:21:58;;;;;;;;;;;12.20;99.90;;;;;;5041881;28;19913;-79
2022/09/11 03:24:25;;;;;;;;;;;12.30;99.90;;;;;;5058566;28;19938;-79
2022/09/11 03:26:50;;;;;;;;;;;12.30;99.90;;;;;;5070500;28;19913;-79
2022/09/11 03:29:16;;;;;;;;;;;12.30;99.90;;;;;;5044063;28;20055;-80
2022/09/11 03:31:41;;;;;;;;;;;12.30;99.90;;;;;;5048674;28;19943;-79
2022/09/11 03:34:07;;;;;;;;;;;12.30;99.90;;;;;;5064509;28;20722;-80
2022/09/11 03:36:33;;;;;;;;;;;12.40;99.90;;;;;;5035375;28;19909;-79
2022/09/11 03:38:59;;;;;;;;;;;12.40;99.90;;;;;;5046323;28;19963;-79
2022/09/11 03:41:25;;;;;;;;;;;12.40;99.90;;;;;;5050902;28;19958;-79
2022/09/11 03:43:51;;;;;;;;;;;12.40;99.90;;;;;;5051133;28;20007;-79
2022/09/11 03:46:16;;;;;;;;;;;12.30;99.90;;;;;;5051182;28;19924;-80
2022/09/11 03:48:42;;;;;;;;;;;12.40;99.90;;;;;;5040349;28;19947;-80
2022/09/11 03:51:07;;;;;;;;;;;12.40;99.90;;;;;;5046815;28;20415;-80
2022/09/11 03:53:34;;;;;;;;;;;12.40;99.90;;;;;;5045797;28;19948;-79
2022/09/11 03:55:59;;;;;;;;;;;12.40;99.90;;;;;;5049098;28;19955;-80
2022/09/11 03:58:25;;;;;;;;;;;12.30;99.90;;;;;;5036214;28;19979;-78
2022/09/11 04:00:50;;;;;;;;;;;12.30;99.90;;;;;;5038437;28;19928;-80
2022/09/11 04:03:16;;;;;;;;;;;12.30;99.90;;;;;;5046540;28;20407;-80
2022/09/11 04:05:43;;;;;;;;;;;12.30;99.90;;;;;;5049328;28;19916;-80
2022/09/11 04:08:10;;;;;;;;;;;12.40;99.90;;;;;;5045492;28;19909;-80
2022/09/11 04:10:35;;;;;;;;;;;12.30;99.90;;;;;;5046549;28;19927;-79
2022/09/11 04:13:01;;;;;;;;;;;12.40;99.90;;;;;;5039025;28;20464;-79
2022/09/11 04:15:26;;;;;;;;;;;12.40;99.90;;;;;;5050777;28;20291;-79
2022/09/11 04:17:52;;;;;;;;;;;12.40;99.90;;;;;;5050222;28;20004;-79
2022/09/11 04:20:18;;;;;;;;;;;12.30;99.90;;;;;;5046772;28;20003;-79
2022/09/11 04:22:43;;;;;;;;;;;12.40;99.90;;;;;;5048438;28;19916;-79
2022/09/11 04:25:11;;;;;;;;;;;12.30;99.90;;;;;;5047941;28;19917;-79
2022/09/11 04:27:36;;;;;;;;;;;12.40;99.90;;;;;;5037857;28;19913;-79
2022/09/11 04:30:03;;;;;;;;;;;12.40;99.90;;;;;;5048103;28;19909;-79
2022/09/11 04:32:28;;;;;;;;;;;12.40;99.90;;;;;;5049117;28;20337;-80
2022/09/11 04:34:54;;;;;;;;;;;12.40;99.90;;;;;;5045330;28;19909;-80
2022/09/11 04:37:19;;;;;;;;;;;12.40;99.90;;;;;;5046540;28;20007;-79
2022/09/11 04:39:47;;;;;;;;;;;12.40;99.90;;;;;;5060055;28;19940;-79
2022/09/11 04:42:13;;;;;;;;;;;12.40;99.90;;;;;;5049822;28;19932;-79
2022/09/11 04:44:38;;;;;;;;;;;12.30;99.90;;;;;;5038590;28;19917;-79
2022/09/11 04:47:04;;;;;;;;;;;12.30;99.90;;;;;;5048722;28;20391;-79
2022/09/11 04:49:29;;;;;;;;;;;12.30;99.90;;;;;;5036757;28;20112;-80
2022/09/11 04:51:56;;;;;;;;;;;12.30;99.90;;;;;;5049755;28;19928;-79
2022/09/11 04:54:22;;;;;;;;;;;12.30;99.90;;;;;;5049604;28;19963;-79
2022/09/11 04:56:48;;;;;;;;;;;12.30;99.90;;;;;;5041444;28;20320;-79
2022/09/11 04:59:15;;;;;;;;;;;12.30;99.90;;;;;;5043002;28;20553;-79
2022/09/11 05:01:41;;;;;;;;;;;12.30;99.90;;;;;;5048857;28;19966;-80
2022/09/11 05:04:07;;;;;;;;;;;12.30;99.90;;;;;;5040032;28;20300;-79
2022/09/11 05:06:32;;;;;;;;;;;12.30;99.90;;;;;;5048426;28;19909;-80
2022/09/11 05:09:02;;;;;;;;;;;12.30;99.90;;;;;;5047151;28;19920;-79
2022/09/11 05:11:29;;;;;;;;;;;12.30;99.90;;;;;;5037672;28;19928;-79
2022/09/11 05:13:57;;;;;;;;;;;12.30;99.90;;;;;;5038306;28;19951;-80
2022/09/11 05:16:24;;;;;;;;;;;12.40;99.90;;;;;;5038090;28;19999;-79
2022/09/11 05:18:51;;;;;;;;;;;12.40;99.90;;;;;;5048007;28;19909;-79
2022/09/11 05:21:17;;;;;;;;;;;12.30;99.90;;;;;;5031314;28;19917;-80
2022/09/11 05:23:46;;;;;;;;;;;12.30;99.90;;;;;;5045526;28;19912;-79
2022/09/11 05:26:15;;;;;;;;;;;12.40;99.90;;;;;;5046769;28;19913;-79
2022/09/11 05:28:41;;;;;;;;;;;12.40;99.90;;;;;;5036787;28;20423;-79
2022/09/11 05:31:10;;;;;;;;;;;12.40;99.90;;;;;;5044735;28;20048;-79
2022/09/11 05:33:36;;;;;;;;;;;12.40;99.90;;;;;;5046899;28;20031;-79
2022/09/11 05:36:03;;;;;;;;;;;12.40;99.90;;;;;;5048857;28;20065;-79
2022/09/11 05:38:29;;;;;;;;;;;12.40;99.90;;;;;;5030691;28;19913;-79
2022/09/11 05:40:54;;;;;;;;;;;12.40;99.90;;;;;;5045989;28;19943;-79
2022/09/11 05:43:20;;;;;;;;;;;12.50;99.90;;;;;;5051322;28;20376;-79
2022/09/11 05:45:56;;;;;;;;;;;12.50;99.90;;;;;;5043225;28;19913;-80
2022/09/11 05:48:21;;;;;;;;;;;12.50;99.90;;;;;;5043548;28;19913;-80
2022/09/11 05:50:54;;;;;;;;;;;12.50;99.90;;;;;;5033666;28;19927;-79
2022/09/11 05:53:20;;;;;;;;;;;12.50;99.90;;;;;;5042681;28;20422;-79
2022/09/11 05:55:46;;;;;;;;;;;12.60;99.90;;;;;;5039528;28;19921;-79
2022/09/11 05:58:12;;;;;;;;;;;12.60;99.90;;;;;;5046568;28;19913;-79
2022/09/11 06:00:39;;;;;;;;;;;12.60;99.90;;;;;;5039464;28;20007;-80
2022/09/11 06:03:05;;;;;;;;;;;12.60;99.90;;;;;;5047674;28;19912;-79
2022/09/11 06:05:31;;;;;;;;;;;12.70;99.90;;;;;;5035406;28;19913;-80
2022/09/11 06:07:57;;;;;;;;;;;12.80;99.90;;;;;;5043062;28;20399;-80
2022/09/11 06:10:22;;;;;;;;;;;12.90;99.90;;;;;;5046432;28;20035;-80
2022/09/11 06:12:47;;;;;;;;;;;13.00;99.90;;;;;;5051414;28;19913;-80
2022/09/11 06:15:13;;;;;;;;;;;13.00;99.90;;;;;;5038557;28;20015;-79
2022/09/11 06:17:39;;;;;;;;;;;12.90;99.90;;;;;;5039897;28;19908;-79
2022/09/11 06:20:04;;;;;;;;;;;12.90;99.90;;;;;;5054065;28;19913;-79
2022/09/11 06:22:32;;;;;;;;;;;13.00;99.90;;;;;;5046757;28;19916;-80
2022/09/11 06:24:57;;;;;;;;;;;13.00;99.90;;;;;;5043090;28;20315;-80
2022/09/11 06:27:23;;;;;;;;;;;13.10;99.90;;;;;;5074832;28;19931;-78
2022/09/11 06:29:49;;;;;;;;;;;13.10;99.90;;;;;;5067214;28;19944;-81
2022/09/11 06:32:15;;;;;;;;;;;13.30;99.90;;;;;;5050275;28;20130;-79
2022/09/11 06:34:40;;;;;;;;;;;13.30;99.90;;;;;;5038928;28;19908;-77
2022/09/11 06:37:06;;;;;;;;;;;13.40;99.90;;;;;;5029584;28;20410;-79
2022/09/11 06:39:33;;;;;;;;;;;13.40;99.90;;;;;;5044525;28;19917;-80
2022/09/11 06:41:58;;;;;;;;;;;13.40;99.90;;;;;;5052582;28;19932;-80
2022/09/11 06:44:25;;;;;;;;;;;13.40;99.90;;;;;;5048080;28;19917;-79
2022/09/11 06:46:51;;;;;;;;;;;13.40;99.90;;;;;;5052648;28;19916;-79
2022/09/11 06:49:16;;;;;;;;;;;13.50;99.90;;;;;;5040090;28;19917;-79
2022/09/11 06:51:42;;;;;;;;;;;13.60;99.90;;;;;;5038804;28;19952;-80
2022/09/11 06:54:07;;;;;;;;;;;13.70;99.90;;;;;;5050485;28;19935;-79
2022/09/11 06:56:33;;;;;;;;;;;13.80;99.90;;;;;;5045648;28;19909;-79
2022/09/11 06:58:58;;;;;;;;;;;13.90;99.90;;;;;;5052783;28;19912;-78
2022/09/11 07:01:24;;;;;;;;;;;13.90;99.90;;;;;;5046939;28;19928;-78
2022/09/11 07:03:51;;;;;;;;;;;14.00;99.90;;;;;;5051819;28;19908;-80
2022/09/11 07:06:18;;;;;;;;;;;13.90;99.90;;;;;;5045163;28;19923;-78
2022/09/11 07:08:50;;;;;;;;;;;14.00;99.90;;;;;;5040949;28;20380;-79
2022/09/11 07:11:17;;;;;;;;;;;14.00;99.90;;;;;;5046751;28;19952;-79
2022/09/11 07:13:43;;;;;;;;;;;14.10;99.90;;;;;;5044545;28;20530;-79
2022/09/11 07:16:09;;;;;;;;;;;14.10;99.90;;;;;;5045338;28;19954;-78
2022/09/11 07:18:35;;;;;;;;;;;14.10;99.90;;;;;;5047804;28;19974;-78
2022/09/11 07:21:10;;;;;;;;;;;14.10;99.90;;;;;;5050408;28;19917;-79
2022/09/11 07:23:35;;;;;;;;;;;14.20;99.90;;;;;;5038822;28;19917;-80
2022/09/11 07:26:06;;;;;;;;;;;14.30;99.90;;;;;;5042247;28;19917;-79
2022/09/11 07:28:32;;;;;;;;;;;14.30;99.90;;;;;;5048737;28;19993;-79
2022/09/11 07:31:14;;;;;;;;;;;14.20;99.90;;;;;;5046234;28;20013;-79
2022/09/11 07:33:41;;;;;;;;;;;14.40;99.90;;;;;;5045664;28;19927;-79
2022/09/11 07:36:11;;;;;;;;;;;14.50;99.90;;;;;;5046284;28;20567;-78
2022/09/11 07:38:38;;;;;;;;;;;14.50;99.90;;;;;;5045689;28;19909;-79
2022/09/11 07:41:05;;;;;;;;;;;14.30;99.90;;;;;;5047682;28;19920;-79
2022/09/11 07:43:31;;;;;;;;;;;14.30;99.90;;;;;;5041064;28;19927;-79
2022/09/11 07:45:57;;;;;;;;;;;14.40;99.90;;;;;;5043683;28;19920;-79
2022/09/11 07:48:22;;;;;;;;;;;14.60;99.90;;;;;;5041141;28;19913;-79
2022/09/11 07:50:55;;;;;;;;;;;14.70;99.90;;;;;;5037786;28;20376;-79
2022/09/11 07:53:20;;;;;;;;;;;14.70;99.90;;;;;;5049072;28;20292;-79
2022/09/11 07:55:46;;;;;;;;;;;14.90;99.90;;;;;;5038913;28;19913;-80
2022/09/11 07:58:12;;;;;;;;;;;15.10;99.90;;;;;;5038046;28;19921;-80
2022/09/11 08:00:37;;;;;;;;;;;15.20;99.90;;;;;;5047564;28;19974;-80
2022/09/11 08:03:03;;;;;;;;;;;15.40;99.90;;;;;;5060739;28;19917;-80
2022/09/11 08:05:28;;;;;;;;;;;15.30;99.90;;;;;;5045761;28;19919;-79
2022/09/11 08:07:54;;;;;;;;;;;15.50;99.90;;;;;;5049006;28;19938;-79
2022/09/11 08:10:19;;;;;;;;;;;15.80;99.90;;;;;;5045761;28;19916;-80
2022/09/11 08:12:46;;;;;;;;;;;15.70;99.90;;;;;;5052802;28;20003;-79
2022/09/11 08:15:12;;;;;;;;;;;15.80;99.90;;;;;;5038827;28;19921;-79
2022/09/11 08:17:37;;;;;;;;;;;15.70;99.90;;;;;;5050626;28;19982;-79
2022/09/11 08:20:03;;;;;;;;;;;15.70;99.90;;;;;;5047682;28;19909;-79
2022/09/11 08:22:28;;;;;;;;;;;15.50;99.90;;;;;;5050541;28;19922;-80
2022/09/11 08:24:54;;;;;;;;;;;15.40;99.90;;;;;;5041909;28;20368;-80
2022/09/11 08:27:19;;;;;;;;;;;15.40;99.90;;;;;;5042758;28;19913;-79
2022/09/11 08:29:45;;;;;;;;;;;15.40;99.90;;;;;;5041519;28;20350;-83
2022/09/11 08:32:12;;;;;;;;;;;15.40;99.90;;;;;;5048536;28;19921;-79
2022/09/11 08:34:37;;;;;;;;;;;15.30;99.90;;;;;;5049605;28;20391;-79
2022/09/11 08:37:03;;;;;;;;;;;15.30;99.90;;;;;;5048409;28;19938;-79
2022/09/11 08:39:28;;;;;;;;;;;15.30;99.90;;;;;;5045308;28;19912;-79
2022/09/11 08:42:01;;;;;;;;;;;15.30;99.90;;;;;;5046780;28;20029;-79
2022/09/11 08:44:32;;;;;;;;;;;15.40;99.90;;;;;;5044639;28;19919;-79
2022/09/11 08:47:01;;;;;;;;;;;15.60;99.90;;;;;;5048689;28;19908;-79
2022/09/11 08:49:30;;;;;;;;;;;16.00;99.90;;;;;;5043734;28;19916;-79
2022/09/11 08:51:57;;;;;;;;;;;16.10;99.90;;;;;;5041547;28;19923;-79
2022/09/11 08:54:30;;;;;;;;;;;16.30;99.90;;;;;;5047111;28;20007;-80
2022/09/11 08:57:15;;;;;;;;;;;16.60;99.90;;;;;;5048512;28;20372;-79
2022/09/11 08:59:41;;;;;;;;;;;16.70;99.90;;;;;;5042483;28;19912;-79
2022/09/11 09:02:09;;;;;;;;;;;16.60;99.90;;;;;;5044188;28;19924;-79
2022/09/11 09:05:00;;;;;;;;;;;17.00;99.90;;;;;;5040247;28;19945;-79
2022/09/11 09:07:42;;;;;;;;;;;17.30;99.90;;;;;;5029066;28;19913;-79
2022/09/11 09:10:07;;;;;;;;;;;17.60;99.90;;;;;;5044041;28;19982;-79
2022/09/11 09:12:36;;;;;;;;;;;17.90;99.90;;;;;;5042411;28;20372;-79
2022/09/11 09:15:04;;;;;;;;;;;17.90;99.90;;;;;;5050071;28;20380;-79
2022/09/11 09:17:40;;;;;;;;;;;17.60;98.20;;;;;;5047277;28;19965;-79
2022/09/11 09:20:09;;;;;;;;;;;17.90;99.80;;;;;;5037907;28;20354;-79
2022/09/11 09:22:38;;;;;;;;;;;17.90;99.90;;;;;;5029752;28;20020;-79
2022/09/11 09:25:08;;;;;;;;;;;17.90;99.90;;;;;;5044660;28;19912;-79
2022/09/11 09:27:37;;;;;;;;;;;17.50;99.90;;;;;;5042478;28;20130;-78
2022/09/11 09:30:04;;;;;;;;;;;17.50;99.90;;;;;;5055006;28;19909;-79
2022/09/11 09:32:41;;;;;;;;;;;17.60;99.90;;;;;;5048262;28;20315;-80
2022/09/11 09:35:25;;;;;;;;;;;17.80;99.90;;;;;;5054280;28;19909;-79
2022/09/11 09:37:51;;;;;;;;;;;17.60;99.90;;;;;;5037758;28;20276;-83
2022/09/11 09:40:17;;;;;;;;;;;18.40;99.90;;;;;;5045265;28;19917;-81
2022/09/11 09:42:52;;;;;;;;;;;18.60;99.20;;;;;;5045743;28;19924;-82
2022/09/11 09:45:23;;;;;;;;;;;19.10;95.90;;;;;;5041672;28;19912;-81
2022/09/11 09:47:49;;;;;;;;;;;19.50;98.70;;;;;;5039083;28;19912;-81
2022/09/11 09:50:16;;;;;;;;;;;19.50;93.90;;;;;;5046723;28;20280;-81
2022/09/11 09:52:42;;;;;;;;;;;18.80;95.50;;;;;;5045077;28;19917;-84
2022/09/11 09:55:13;;;;;;;;;;;18.80;94.30;;;;;;5027789;28;19916;-83
2022/09/11 09:57:38;;;;;;;;;;;18.60;92.40;;;;;;5043752;28;20364;-82
2022/09/11 10:00:10;;;;;;;;;;;18.70;94.00;;;;;;5040142;28;19924;-82
2022/09/11 10:02:38;;;;;;;;;;;18.20;98.40;;;;;;5040692;28;19921;-87
2022/09/11 10:05:24;;;;;;;;;;;17.90;99.90;;;;;;5035855;28;19909;-87
2022/09/11 10:07:51;;;;;;;;;;;17.90;98.90;;;;;;5048365;28;20383;-86
2022/09/11 10:10:20;;;;;;;;;;;17.40;99.90;;;;;;5044072;28;19921;-78
2022/09/11 10:12:46;;;;;;;;;;;17.20;99.90;;;;;;5032369;28;19921;-82
2022/09/11 10:15:17;;;;;;;;;;;17.30;99.90;;;;;;5050820;28;20629;-82
2022/09/11 10:17:43;;;;;;;;;;;17.40;99.90;;;;;;5038413;28;19940;-82
2022/09/11 10:20:14;;;;;;;;;;;17.60;99.90;;;;;;5041476;28;19932;-82
2022/09/11 10:22:40;;;;;;;;;;;17.90;99.00;;;;;;5050038;28;19909;-82
2022/09/11 10:25:25;;;;;;;;;;;18.30;98.00;;;;;;5042979;28;20509;-83
2022/09/11 10:28:01;;;;;;;;;;;19.10;95.50;;;;;;5044513;28;19955;-82
2022/09/11 10:30:30;;;;;;;;;;;19.40;95.30;;;;;;5047529;28;19920;-82
2022/09/11 10:32:57;;;;;;;;;;;19.40;93.10;;;;;;5051007;28;20007;-82
2022/09/11 10:35:25;;;;;;;;;;;19.40;92.30;;;;;;5021304;28;19917;-82
2022/09/11 10:38:09;;;;;;;;;;;19.00;94.50;;;;;;5037129;28;19917;-79
2022/09/11 10:40:34;;;;;;;;;;;18.80;95.50;;;;;;5042911;28;19974;-81
2022/09/11 10:43:00;;;;;;;;;;;19.00;96.30;;;;;;5047200;28;19921;-81
2022/09/11 10:45:25;;;;;;;;;;;19.00;95.60;;;;;;5045840;28;19919;-82
2022/09/11 10:47:51;;;;;;;;;;;19.00;96.10;;;;;;5050170;28;19916;-81
2022/09/11 10:50:19;;;;;;;;;;;18.80;96.70;;;;;;5039090;28;19917;-81
2022/09/11 10:52:50;;;;;;;;;;;19.40;94.60;;;;;;5037509;28;19917;-81
2022/09/11 10:55:17;;;;;;;;;;;20.40;88.30;;;;;;5045455;28;20557;-82
2022/09/11 10:57:43;;;;;;;;;;;21.10;86.30;;;;;;5042378;28;19967;-82
2022/09/11 11:00:11;;;;;;;;;;;21.40;79.40;;;;;;5046082;28;20259;-83
2022/09/11 11:02:44;;;;;;;;;;;21.30;80.60;;;;;;5042022;28;19917;-83
2022/09/11 11:05:29;;;;;;;;;;;21.90;75.80;;;;;;5044581;28;19999;-79
2022/09/11 11:07:54;;;;;;;;;;;22.10;70.80;;;;;;5045115;28;20375;-79
2022/09/11 11:10:26;;;;;;;;;;;21.50;68.80;;;;;;5049226;28;20008;-79
2022/09/11 11:12:57;;;;;;;;;;;21.20;70.60;;;;;;5038157;28;20003;-78
2022/09/11 11:15:31;;;;;;;;;;;20.80;74.40;;;;;;5049252;28;20283;-78
2022/09/11 11:17:57;;;;;;;;;;;21.30;75.00;;;;;;5051978;28;19909;-79
2022/09/11 11:20:32;;;;;;;;;;;21.10;71.70;;;;;;5037005;28;19915;-78
2022/09/11 11:23:17;;;;;;;;;;;20.80;74.10;;;;;;5049968;28;19952;-78
2022/09/11 11:26:01;;;;;;;;;;;21.50;72.90;;;;;;5044850;28;19967;-79
2022/09/11 11:28:27;;;;;;;;;;;21.70;68.70;;;;;;5051325;28;19912;-79
2022/09/11 11:31:11;;;;;;;;;;;22.80;69.20;;;;;;5046741;28;19916;-79
2022/09/11 11:33:50;;;;;;;;;;;22.00;64.80;;;;;;5035714;28;19912;-82
2022/09/11 11:36:28;;;;;;;;;;;21.80;67.50;;;;;;5049492;28;19913;-77
2022/09/11 11:39:12;;;;;;;;;;;21.00;69.30;;;;;;5048451;28;19919;-78
2022/09/11 11:41:42;;;;;;;;;;;20.50;75.10;;;;;;5047114;28;19995;-79
2022/09/11 11:44:11;;;;;;;;;;;20.10;78.80;;;;;;5043471;28;19952;-77
2022/09/11 11:46:38;;;;;;;;;;;20.10;80.20;;;;;;5038371;28;19921;-79
2022/09/11 11:49:06;;;;;;;;;;;20.20;80.00;;;;;;5047659;28;19908;-78
2022/09/11 11:51:39;;;;;;;;;;;21.10;78.40;;;;;;5050263;28;19916;-78
2022/09/11 11:54:17;;;;;;;;;;;22.80;65.70;;;;;;5044881;28;19908;-79
2022/09/11 11:56:45;;;;;;;;;;;24.70;63.20;;;;;;5051798;28;19916;-79
2022/09/11 11:59:11;;;;;;;;;;;25.20;56.00;;;;;;5024187;28;19940;-79
2022/09/11 12:01:39;;;;;;;;;;;24.40;58.50;;;;;;5044305;28;19912;-78
2022/09/11 12:04:07;;;;;;;;;;;24.00;59.60;;;;;;5046770;28;19966;-80
2022/09/11 12:06:35;;;;;;;;;;;23.50;59.20;;;;;;5048195;28;20437;-79
2022/09/11 12:09:03;;;;;;;;;;;22.50;65.90;;;;;;5044920;28;19939;-78
2022/09/11 12:11:29;;;;;;;;;;;21.80;64.60;;;;;;5036139;28;19916;-79
2022/09/11 12:13:56;;;;;;;;;;;21.60;65.90;;;;;;5046784;28;19924;-79
2022/09/11 12:16:27;;;;;;;;;;;21.10;67.40;;;;;;5047617;28;19916;-78
2022/09/11 12:19:04;;;;;;;;;;;21.20;64.70;;;;;;5043835;28;20336;-79
2022/09/11 12:21:30;;;;;;;;;;;21.10;66.00;;;;;;5040517;28;19909;-79
2022/09/11 12:23:55;;;;;;;;;;;21.20;64.80;;;;;;5050087;28;19950;-78
2022/09/11 12:26:21;;;;;;;;;;;21.00;65.60;;;;;;5067712;28;19916;-78
2022/09/11 12:29:07;;;;;;;;;;;21.10;70.00;;;;;;5043148;28;20501;-78
2022/09/11 12:31:48;;;;;;;;;;;21.20;69.30;;;;;;5030218;28;19917;-79
2022/09/11 12:34:16;;;;;;;;;;;20.80;69.90;;;;;;5035218;28;19990;-79
2022/09/11 12:36:47;;;;;;;;;;;20.60;69.50;;;;;;5035093;28;19917;-78
2022/09/11 12:39:18;;;;;;;;;;;20.80;68.30;;;;;;5041433;28;19919;-78
2022/09/11 12:41:44;;;;;;;;;;;20.80;66.70;;;;;;5036985;28;20311;-78
2022/09/11 12:44:48;;;;;;;;;;;20.50;64.60;;;;;;5037948;28;19967;-79
2022/09/11 12:47:22;;;;;;;;;;;20.80;64.60;;;;;;5042071;28;19995;-78
2022/09/11 12:49:56;;;;;;;;;;;20.90;66.50;;;;;;5048344;28;19916;-79
2022/09/11 12:52:28;;;;;;;;;;;22.50;59.20;;;;;;5038086;28;19920;-78
2022/09/11 12:54:54;;;;;;;;;;;22.50;56.80;;;;;;5041423;28;19912;-78
2022/09/11 12:57:27;;;;;;;;;;;22.00;56.90;;;;;;5031640;28;19924;-78
2022/09/11 12:59:59;;;;;;;;;;;22.00;58.80;;;;;;5038033;28;19967;-79
2022/09/11 13:02:34;;;;;;;;;;;21.70;58.10;;;;;;5042931;28;19939;-79
2022/09/11 13:05:00;;;;;;;;;;;23.40;57.70;;;;;;5044777;28;19961;-78
2022/09/11 13:07:39;;;;;;;;;;;25.40;50.40;;;;;;5046707;28;20345;-79
2022/09/11 13:10:07;;;;;;;;;;;24.90;48.30;;;;;;5043014;28;19967;-79
2022/09/11 13:12:49;;;;;;;;;;;25.00;47.70;;;;;;5041830;28;19920;-78
2022/09/11 13:15:32;;;;;;;;;;;24.50;46.00;;;;;;5038545;28;19951;-79
2022/09/11 13:17:57;;;;;;;;;;;24.20;51.30;;;;;;5057414;28;19920;-78
2022/09/11 13:20:23;;;;;;;;;;;23.80;49.30;;;;;;5038877;28;19912;-78
2022/09/11 13:22:50;;;;;;;;;;;23.20;52.20;;;;;;5047022;28;19912;-79
2022/09/11 13:25:16;;;;;;;;;;;23.50;54.10;;;;;;5049490;28;19909;-79
2022/09/11 13:27:44;;;;;;;;;;;23.60;49.10;;;;;;5048497;28;19912;-76
2022/09/11 13:30:14;;;;;;;;;;;23.80;49.70;;;;;;5039899;28;19944;-77
2022/09/11 13:32:40;;;;;;;;;;;24.20;50.60;;;;;;5040398;28;20535;-76
2022/09/11 13:35:15;;;;;;;;;;;26.50;45.10;;;;;;5040921;28;19921;-77
2022/09/11 13:37:41;;;;;;;;;;;29.40;39.30;;;;;;5038089;28;19908;-77
2022/09/11 13:40:14;;;;;;;;;;;31.20;34.80;;;;;;5041720;28;20372;-77
2022/09/11 13:42:39;;;;;;;;;;;29.80;32.30;;;;;;5030440;28;19935;-77
2022/09/11 13:45:06;;;;;;;;;;;30.60;30.30;;;;;;5042486;28;19916;-77
2022/09/11 13:47:31;;;;;;;;;;;29.80;29.90;;;;;;5046351;28;19971;-77
2022/09/11 13:49:58;;;;;;;;;;;28.30;34.50;;;;;;5036234;28;19963;-77
2022/09/11 13:52:25;;;;;;;;;;;26.90;40.30;;;;;;5042858;28;19924;-77
2022/09/11 13:54:56;;;;;;;;;;;27.00;37.90;;;;;;5047387;28;20288;-78
2022/09/11 13:57:22;;;;;;;;;;;25.50;38.50;;;;;;5046647;28;20046;-77
2022/09/11 13:59:50;;;;;;;;;;;24.70;42.50;;;;;;5048320;28;20007;-76
2022/09/11 14:02:22;;;;;;;;;;;24.80;42.60;;;;;;5041488;28;19924;-77
2022/09/11 14:04:48;;;;;;;;;;;25.30;40.40;;;;;;5036190;28;20415;-76
2022/09/11 14:07:19;;;;;;;;;;;24.70;42.80;;;;;;5045892;28;19913;-75
2022/09/11 14:09:46;;;;;;;;;;;24.80;42.70;;;;;;5049503;28;19908;-76
2022/09/11 14:12:11;;;;;;;;;;;25.00;47.10;;;;;;5036070;28;19921;-76
2022/09/11 14:14:37;;;;;;;;;;;24.60;44.10;;;;;;5041234;28;19924;-75
2022/09/11 14:17:03;;;;;;;;;;;26.00;44.60;;;;;;5044643;28;19959;-76
2022/09/11 14:19:31;;;;;;;;;;;25.00;47.80;;;;;;5047394;28;20435;-75
2022/09/11 14:21:56;;;;;;;;;;;25.50;43.00;;;;;;5040791;28;19923;-76
2022/09/11 14:24:26;;;;;;;;;;;27.70;39.00;;;;;;5045971;28;19908;-75
2022/09/11 14:26:52;;;;;;;;;;;29.80;33.80;;;;;;5044159;28;19912;-74